Aérodrome :
LOGIN :

S'inscrire | Disclaimer

   EN    FR    IT 

 










Légende :    VFR   VFR Marginal   IFR   IFR Intensif   IFR Très Intensif
Visi : 
Plafond : 
>= 8 km
>= 3000ft
5 à 8 km
1000 à 3000 ft
1500m à 5 km
500 à 1000 ft
800 à 1500m
200 à 500 ft
< 800m
< 200 ft
Symboles :   Orages  Brouillard  Fortes neiges  Fortes précipitations  Vent > 20 kt
SIGMETs :   Divers  Orages  Givrage  Turbulence  Onde Orograph.  Cendres Volcan.







- Altitude de l'aérodrome : 194 ft


EBCV - Chièvres

DERNIER METAR :
  • 180055Z AUTO 25008KT 2500 DZ OVC003/// 05/05 Q1018 YLO

METARs EXPIRÉS :
  • 180025Z AUTO 22012KT 4800 -RA OVC005/// 04/04 Q1018 YLO
  • 172355Z AUTO 22017KT 3200 -RA OVC005/// 04/04 Q1018 YLO
  • 172325Z AUTO 21019KT 1900 -RA OVC006/// 04/04 Q1019 YLO
  • 172255Z AUTO 21020KT 2500 -RA OVC006/// 04/04 Q1019 YLO
  • 172225Z AUTO 20017KT 2900 RA BKN006/// OVC026/// 04/03 Q1020 YLO

TAF TAF EBCV
Valide du 17 à 19h jusqu'au 18 à 07h UTC


171541Z 1719/1807 26012KT 8000 SCT020 BKN040
TEMPO 1719/1805 28015KT 3000 -RA -RASN SCT008 BKN015
BECMG 1805/1807 30010KT 6000 NSW SCT010 BKN018 BY EBWM
Pas de NOTAMs connus pour ce terrain.



MET'MAP, la Météo Aéronautique d'un coup d'oeil ! - Copyright ORBIFLY Décembre 2007 - Disclaimer

ORBIFLY MET'MAP TEAM :

Programmation & Développement : Alexandra Zaïnal
Conception & Développement : Baudouin d'Aumeries
Co-Programmation & Développement : Marc-Olivier Méhu
Soutien technique & logistique : Manuel Goepfert

Contact : metmap@orbifly.com




SOURCES & CREDITS :

   NOAA